Time;durP1;ratioP1;P1;durP2;ratioP2;P2;SDS_P1;SDS_P2;PMS_P1;PMS_P2;Temp;Humidity;BMP_temperature;BMP_pressure;BME280_temperature;BME280_humidity;BME280_pressure;Samples;Min_cycle;Max_cycle;Signal;HPM_P1;HPM_P2
2021/10/16 00:00:51;;;;;;;;;8.75;6.00;;;;;21.15;44.48;101609.81;5017385;28;45402;-49
2021/10/16 00:03:17;;;;;;;;;8.50;6.75;;;;;21.16;44.36;101606.25;5017231;28;45420;-51
2021/10/16 00:05:43;;;;;;;;;7.50;7.00;;;;;21.16;44.55;101606.25;5017548;28;45413;-51
2021/10/16 00:08:09;;;;;;;;;8.00;7.00;;;;;21.15;43.98;101605.41;5017450;28;46262;-53
2021/10/16 00:10:34;;;;;;;;;7.50;7.00;;;;;21.15;44.30;101602.78;5017236;28;45341;-52
2021/10/16 00:13:00;;;;;;;;;7.75;6.75;;;;;21.15;44.09;101612.47;5017236;28;45946;-53
2021/10/16 00:15:26;;;;;;;;;8.25;6.50;;;;;21.14;44.05;101601.06;4999703;28;45258;-55
2021/10/16 00:17:51;;;;;;;;;5.50;5.50;;;;;21.14;44.38;101605.47;5016984;28;45353;-52
2021/10/16 00:20:16;;;;;;;;;6.00;4.25;;;;;21.15;43.92;101601.91;4999331;28;45258;-51
2021/10/16 00:22:42;;;;;;;;;6.00;6.00;;;;;21.14;44.40;101610.75;5017170;28;45223;-52
2021/10/16 00:25:08;;;;;;;;;8.00;8.00;;;;;21.13;43.92;101606.41;5017602;28;45619;-51
2021/10/16 00:27:33;;;;;;;;;7.50;7.50;;;;;21.12;44.36;101600.28;5016910;28;46192;-52
2021/10/16 00:29:58;;;;;;;;;5.00;5.00;;;;;21.13;44.11;101609.03;5016786;28;45321;-54
2021/10/16 00:32:24;;;;;;;;;8.00;7.25;;;;;21.13;44.03;101611.66;5016836;28;45461;-55
2021/10/16 00:34:49;;;;;;;;;6.25;5.50;;;;;21.13;44.32;101609.03;4999284;28;45434;-54
2021/10/16 00:37:14;;;;;;;;;8.00;7.00;;;;;21.12;43.99;101607.31;4998870;28;48333;-53
2021/10/16 00:39:40;;;;;;;;;5.25;5.25;;;;;21.12;44.24;101612.59;5017076;28;45286;-54
2021/10/16 00:42:07;;;;;;;;;6.50;6.00;;;;;21.11;44.26;101610.91;5017014;28;45780;-53
2021/10/16 00:44:33;;;;;;;;;7.00;7.00;;;;;21.11;44.12;101605.63;5016789;28;45554;-53
2021/10/16 00:46:58;;;;;;;;;5.75;5.75;;;;;21.11;43.94;101605.63;5016653;28;45439;-55
2021/10/16 00:49:28;;;;;;;;;7.00;7.00;;;;;21.11;43.93;101611.75;5016596;28;45341;-52
2021/10/16 00:51:54;;;;;;;;;9.00;7.75;;;;;21.11;43.93;101605.63;5016800;28;45230;-52
2021/10/16 00:54:20;;;;;;;;;7.00;7.00;;;;;21.11;44.51;101600.38;5015504;28;45547;-53
2021/10/16 00:56:48;;;;;;;;;7.50;6.00;;;;;21.09;44.02;101602.22;5016418;28;45450;-52
2021/10/16 00:59:13;;;;;;;;;6.00;5.25;;;;;21.09;43.88;101605.69;5016594;28;45844;-50
2021/10/16 01:01:39;;;;;;;;;7.00;6.00;;;;;21.09;44.45;101610.13;5016900;28;45361;-54
2021/10/16 01:04:05;;;;;;;;;7.25;7.25;;;;;21.09;44.32;101608.31;5016767;28;45539;-52
2021/10/16 01:06:31;;;;;;;;;6.00;4.00;;;;;21.10;44.05;101602.13;5016018;28;46418;-55
2021/10/16 01:08:58;;;;;;;;;5.00;5.00;;;;;21.10;44.09;101599.50;5016294;28;45920;-54
2021/10/16 01:11:39;;;;;;;;;6.25;6.25;;;;;21.14;44.12;101597.56;5016582;28;45350;-55
2021/10/16 01:14:10;;;;;;;;;6.00;6.00;;;;;21.16;44.11;101598.34;5016497;28;45245;-53
2021/10/16 01:16:37;;;;;;;;;6.00;5.75;;;;;21.19;44.52;101598.22;4998358;28;46117;-54
2021/10/16 01:19:07;;;;;;;;;5.00;5.00;;;;;21.24;44.17;101600.66;5016112;28;45814;-52
2021/10/16 01:21:34;;;;;;;;;5.50;5.50;;;;;21.27;43.86;101598.72;4998517;28;45329;-51
2021/10/16 01:24:00;;;;;;;;;5.50;4.25;;;;;21.34;44.07;101601.06;4998524;28;45409;-55
2021/10/16 01:26:28;;;;;;;;;5.50;5.50;;;;;21.38;43.86;101595.59;5016154;28;45442;-54
2021/10/16 01:28:54;;;;;;;;;8.25;6.75;;;;;21.42;44.01;101589.22;5016053;28;45742;-54
2021/10/16 01:31:22;;;;;;;;;6.75;5.50;;;;;21.48;43.92;101596.00;5016267;28;45340;-55
2021/10/16 01:33:47;;;;;;;;;7.00;5.00;;;;;21.52;44.07;101578.22;5016287;28;45342;-53
2021/10/16 01:36:13;;;;;;;;;6.75;4.50;;;;;21.56;43.94;101575.38;5016149;28;47544;-52
2021/10/16 01:38:38;;;;;;;;;5.75;5.75;;;;;21.60;43.87;101582.25;5015929;28;45377;-54
2021/10/16 01:41:03;;;;;;;;;4.00;4.00;;;;;21.65;44.17;101575.91;5016185;28;45489;-54
2021/10/16 01:43:29;;;;;;;;;6.00;6.00;;;;;21.67;43.69;101577.53;5016220;28;45373;-53
2021/10/16 01:45:55;;;;;;;;;6.00;6.00;;;;;21.71;43.72;101576.47;5015867;28;47390;-54
2021/10/16 01:48:25;;;;;;;;;6.50;6.00;;;;;21.74;43.95;101578.94;5015866;28;45345;-54
2021/10/16 01:50:51;;;;;;;;;6.00;6.00;;;;;21.80;43.42;101582.22;5015932;28;45369;-51
2021/10/16 01:53:17;;;;;;;;;7.25;6.00;;;;;21.81;43.86;101579.50;5015921;28;45338;-53
2021/10/16 01:55:43;;;;;;;;;7.25;5.50;;;;;21.85;43.72;101575.78;5016039;28;45380;-54
2021/10/16 01:58:10;;;;;;;;;5.00;5.00;;;;;21.89;43.46;101577.31;5015741;28;45309;-54
2021/10/16 02:00:36;;;;;;;;;5.00;5.00;;;;;21.91;43.67;101569.34;5016070;28;45344;-54
2021/10/16 02:03:06;;;;;;;;;6.00;6.00;;;;;21.95;43.54;101559.50;5015736;28;45670;-55
2021/10/16 02:05:31;;;;;;;;;4.00;4.00;;;;;21.98;43.57;101576.03;5015569;28;45343;-54
2021/10/16 02:07:56;;;;;;;;;7.00;6.00;;;;;21.99;43.42;101566.34;5015602;28;45380;-54
2021/10/16 02:10:22;;;;;;;;;4.75;4.75;;;;;22.01;43.23;101554.75;5015689;28;45294;-53
2021/10/16 02:12:47;;;;;;;;;6.50;4.25;;;;;22.04;43.35;101564.31;5015760;28;45519;-52
2021/10/16 02:15:12;;;;;;;;;6.75;5.00;;;;;22.06;43.46;101559.81;5015774;28;46204;-53
2021/10/16 02:17:38;;;;;;;;;5.00;5.00;;;;;22.08;43.12;101563.22;5015491;28;45316;-54
2021/10/16 02:20:03;;;;;;;;;5.25;4.75;;;;;22.09;43.18;101562.31;5018226;28;45468;-55
2021/10/16 02:22:29;;;;;;;;;5.75;5.75;;;;;22.09;43.07;101564.94;5019123;28;45471;-54
2021/10/16 02:24:54;;;;;;;;;5.25;4.75;;;;;22.09;43.36;101560.50;5018806;28;45368;-54
2021/10/16 02:27:20;;;;;;;;;3.75;3.75;;;;;22.10;43.03;101553.47;5018851;28;48448;-52
2021/10/16 02:29:46;;;;;;;;;3.75;3.75;;;;;22.09;42.95;101546.47;5019291;28;45498;-55
2021/10/16 02:32:11;;;;;;;;;6.75;5.00;;;;;22.10;43.22;101550.81;5019102;28;45636;-55
2021/10/16 02:34:37;;;;;;;;;4.50;4.50;;;;;22.09;43.12;101551.75;5018596;28;46463;-50
2021/10/16 02:37:04;;;;;;;;;5.00;5.00;;;;;22.10;43.01;101550.81;5018519;28;45317;-53
2021/10/16 02:39:30;;;;;;;;;4.25;4.25;;;;;22.09;42.66;101551.75;5018896;28;45341;-54
2021/10/16 02:41:56;;;;;;;;;5.00;4.75;;;;;22.09;43.27;101552.59;5018950;28;45544;-54
2021/10/16 02:44:22;;;;;;;;;5.00;5.00;;;;;22.08;43.31;101548.22;5000331;28;45853;-55
2021/10/16 02:46:48;;;;;;;;;5.00;5.00;;;;;22.08;43.12;101555.31;5019055;28;45293;-55
2021/10/16 02:49:14;;;;;;;;;6.00;6.00;;;;;22.08;43.21;101550.03;5018989;28;45349;-54
2021/10/16 02:51:39;;;;;;;;;6.25;5.00;;;;;22.07;43.33;101550.97;5018845;28;45617;-55
2021/10/16 02:54:04;;;;;;;;;4.00;3.25;;;;;22.07;43.25;101557.09;5018327;28;46180;-55
2021/10/16 02:56:30;;;;;;;;;4.25;4.25;;;;;22.04;43.17;101551.09;5018482;28;45460;-56
2021/10/16 02:58:55;;;;;;;;;4.50;4.50;;;;;22.04;43.04;101545.81;5033914;28;45421;-54
2021/10/16 03:01:21;;;;;;;;;6.50;3.00;;;;;22.02;42.92;101553.84;5018639;28;45517;-56
2021/10/16 03:03:46;;;;;;;;;4.00;4.00;;;;;22.02;43.12;101542.41;5018353;28;45405;-55
2021/10/16 03:06:11;;;;;;;;;5.50;5.50;;;;;22.02;43.01;101545.91;5018271;28;45337;-55
2021/10/16 03:08:37;;;;;;;;;4.50;4.50;;;;;22.02;42.96;101545.03;5018431;28;45436;-56
2021/10/16 03:11:02;;;;;;;;;5.00;5.00;;;;;22.00;42.98;101541.63;5000591;28;45595;-54
2021/10/16 03:13:27;;;;;;;;;4.75;4.75;;;;;22.01;43.19;101545.97;5018055;28;46349;-55
2021/10/16 03:15:53;;;;;;;;;5.00;4.00;;;;;22.01;42.96;101548.63;5018140;28;45447;-54
2021/10/16 03:18:18;;;;;;;;;5.00;4.00;;;;;21.99;43.05;101545.22;5018124;28;48423;-53
2021/10/16 03:20:43;;;;;;;;;4.00;4.00;;;;;21.99;43.03;101537.31;5018311;28;45689;-51
2021/10/16 03:23:09;;;;;;;;;6.00;5.00;;;;;22.02;42.99;101545.03;5000060;28;48388;-50
2021/10/16 03:25:34;;;;;;;;;3.25;3.25;;;;;21.99;43.16;101546.06;5017620;28;52152;-53
2021/10/16 03:28:00;;;;;;;;;5.25;5.25;;;;;21.98;43.43;101538.22;5018074;28;45577;-53
2021/10/16 03:30:25;;;;;;;;;3.75;3.75;;;;;21.99;43.00;101542.59;5017990;28;45533;-54
2021/10/16 03:32:51;;;;;;;;;4.75;3.25;;;;;21.97;43.08;101547.91;5017746;28;45627;-52
2021/10/16 03:35:16;;;;;;;;;4.75;4.75;;;;;21.97;42.95;101547.09;5018147;28;45286;-50
2021/10/16 03:37:41;;;;;;;;;2.75;2.75;;;;;21.98;43.21;101546.16;5017913;28;45345;-51
2021/10/16 03:40:08;;;;;;;;;3.00;3.00;;;;;21.97;43.06;101541.81;5018061;28;45606;-52
2021/10/16 03:42:34;;;;;;;;;6.75;4.00;;;;;21.96;43.20;101542.72;5017598;28;46555;-54
2021/10/16 03:45:01;;;;;;;;;4.00;4.00;;;;;21.94;43.13;101540.16;5017690;28;45523;-54
2021/10/16 03:47:26;;;;;;;;;4.50;3.50;;;;;21.92;42.95;101534.97;5017358;28;45381;-54
2021/10/16 03:49:52;;;;;;;;;5.25;4.75;;;;;21.91;43.09;101535.88;5017734;28;45312;-54
2021/10/16 03:52:17;;;;;;;;;5.00;4.25;;;;;21.91;43.01;101538.53;5017707;28;46321;-53
2021/10/16 03:54:42;;;;;;;;;5.75;5.00;;;;;21.91;42.96;101538.53;5017415;28;45261;-55
2021/10/16 03:57:07;;;;;;;;;3.00;3.00;;;;;21.90;42.90;101535.97;4999712;28;45343;-52
2021/10/16 03:59:33;;;;;;;;;3.50;3.50;;;;;21.89;42.78;101535.09;5017581;28;45365;-51
2021/10/16 04:01:59;;;;;;;;;3.00;3.00;;;;;21.89;43.00;101535.09;4999758;28;46227;-52
2021/10/16 04:04:24;;;;;;;;;4.00;3.00;;;;;21.88;42.92;101541.31;5017066;28;45514;-53
2021/10/16 04:06:49;;;;;;;;;4.00;4.00;;;;;21.88;42.85;101537.81;5017918;28;45222;-53
2021/10/16 04:09:15;;;;;;;;;6.25;5.00;;;;;21.86;43.10;101535.28;5017669;28;45416;-53
2021/10/16 04:11:41;;;;;;;;;4.50;4.50;;;;;21.87;43.10;101542.28;5017065;28;46486;-54
2021/10/16 04:14:06;;;;;;;;;5.00;5.00;;;;;21.86;43.00;101547.59;5017036;28;45262;-55
2021/10/16 04:16:31;;;;;;;;;3.00;3.00;;;;;21.85;42.98;101544.13;5017386;28;45341;-54
2021/10/16 04:18:57;;;;;;;;;2.25;2.25;;;;;21.84;42.86;101546.81;5017263;28;45270;-51
2021/10/16 04:21:22;;;;;;;;;2.25;2.25;;;;;21.85;43.17;101554.69;5017106;28;45284;-54
2021/10/16 04:23:47;;;;;;;;;3.00;3.00;;;;;21.84;42.98;101541.53;4999457;28;45277;-53
2021/10/16 04:26:13;;;;;;;;;5.50;4.00;;;;;21.82;43.01;101549.53;5017146;28;45310;-52
2021/10/16 04:28:38;;;;;;;;;3.25;3.25;;;;;21.82;42.99;101554.81;5017283;28;45552;-53
2021/10/16 04:31:03;;;;;;;;;4.00;4.00;;;;;21.82;42.68;101559.25;5016851;28;45297;-54
2021/10/16 04:33:29;;;;;;;;;4.00;4.00;;;;;21.79;42.78;101557.59;5016742;28;45230;-52
2021/10/16 04:35:54;;;;;;;;;3.75;3.75;;;;;21.77;43.09;101557.69;5017002;28;45441;-55
2021/10/16 04:38:20;;;;;;;;;5.00;4.50;;;;;21.78;42.80;101562.03;5017367;28;45315;-54
2021/10/16 04:40:45;;;;;;;;;4.00;4.00;;;;;21.76;43.26;101553.34;5016822;28;45977;-53
2021/10/16 04:43:10;;;;;;;;;4.00;4.00;;;;;21.75;43.02;101556.06;5016014;28;45278;-56
2021/10/16 04:45:36;;;;;;;;;4.00;3.50;;;;;21.75;42.93;101553.44;5016818;28;45459;-53
2021/10/16 04:48:04;;;;;;;;;3.00;3.00;;;;;21.74;43.49;101562.28;5016956;28;45586;-55
2021/10/16 04:50:29;;;;;;;;;6.00;3.00;;;;;21.74;43.12;101562.28;5016452;28;46415;-53
2021/10/16 04:52:55;;;;;;;;;4.50;3.25;;;;;21.73;42.90;101565.84;5016484;28;45326;-55
2021/10/16 04:55:23;;;;;;;;;3.00;3.00;;;;;21.73;42.77;101571.09;5017060;28;45413;-53
2021/10/16 04:57:48;;;;;;;;;4.00;4.00;;;;;21.71;42.76;101563.28;5016872;28;45498;-54
2021/10/16 05:00:14;;;;;;;;;2.00;2.00;;;;;21.71;42.83;101565.06;5016475;28;46379;-54
2021/10/16 05:02:39;;;;;;;;;4.25;3.50;;;;;21.70;42.93;101571.25;5016267;28;45412;-53
2021/10/16 05:05:05;;;;;;;;;3.25;3.25;;;;;21.70;43.05;101573.88;5031762;28;45392;-54
2021/10/16 05:07:30;;;;;;;;;4.75;4.00;;;;;21.69;42.93;101572.19;5016711;28;45666;-53
2021/10/16 05:09:56;;;;;;;;;3.00;3.00;;;;;21.68;42.92;101567.81;5016164;28;46946;-53
2021/10/16 05:12:21;;;;;;;;;4.00;4.00;;;;;21.67;43.34;101574.03;5016687;28;45452;-51
2021/10/16 05:14:47;;;;;;;;;5.00;4.00;;;;;21.67;42.84;101581.94;5016293;28;45424;-54
2021/10/16 05:17:12;;;;;;;;;5.50;5.50;;;;;21.65;43.16;101582.03;5016569;28;45578;-55
2021/10/16 05:19:37;;;;;;;;;6.50;6.00;;;;;21.64;42.04;101593.50;5016047;28;45380;-55
2021/10/16 05:22:03;;;;;;;;;8.00;7.00;;;;;21.40;42.03;101596.34;5016091;28;45389;-55
2021/10/16 05:24:29;;;;;;;;;8.25;8.00;;;;;21.10;41.53;101586.31;5016212;28;45475;-55
2021/10/16 05:26:54;;;;;;;;;7.50;7.50;;;;;20.78;42.05;101582.50;5032145;28;45309;-52
2021/10/16 05:29:21;;;;;;;;;9.00;7.00;;;;;20.55;42.20;101581.72;5015994;28;46385;-53
2021/10/16 05:31:46;;;;;;;;;13.50;8.25;;;;;20.37;42.47;101584.19;5016031;28;45430;-53
2021/10/16 05:34:12;;;;;;;;;6.25;6.00;;;;;20.19;42.44;101580.56;5016135;28;45540;-55
2021/10/16 05:36:38;;;;;;;;;7.50;7.50;;;;;20.02;42.38;101578.63;5016214;28;45213;-54
2021/10/16 05:39:03;;;;;;;;;8.25;8.25;;;;;19.89;43.13;101578.31;5015983;28;45493;-52
2021/10/16 05:41:28;;;;;;;;;10.50;8.25;;;;;19.76;43.24;101572.66;5016022;28;45192;-53
2021/10/16 05:43:54;;;;;;;;;8.50;8.00;;;;;19.66;43.37;101580.97;5016421;28;45433;-52
2021/10/16 05:46:19;;;;;;;;;9.00;8.00;;;;;19.53;43.03;101576.19;5016417;28;45566;-51
2021/10/16 05:48:44;;;;;;;;;10.25;9.00;;;;;19.42;43.28;101576.63;5015567;28;50774;-53
2021/10/16 05:51:11;;;;;;;;;9.25;9.25;;;;;19.28;43.16;101573.66;5015805;28;46857;-53
2021/10/16 05:53:36;;;;;;;;;8.50;8.50;;;;;19.18;43.45;101580.19;5016347;28;45432;-55
2021/10/16 05:56:02;;;;;;;;;11.25;7.25;;;;;19.11;43.84;101580.44;5001945;28;45363;-54
2021/10/16 05:58:27;;;;;;;;;6.00;6.00;;;;;19.03;43.97;101576.38;5018024;28;46121;-54
2021/10/16 06:00:53;;;;;;;;;7.00;7.00;;;;;18.98;44.09;101581.78;5019644;28;45343;-55
2021/10/16 06:03:18;;;;;;;;;9.25;8.00;;;;;18.96;43.79;101580.97;5019096;28;45274;-53
2021/10/16 06:05:44;;;;;;;;;6.75;6.75;;;;;18.93;43.79;101576.72;5019417;28;45532;-54
2021/10/16 06:08:09;;;;;;;;;8.25;7.25;;;;;18.88;43.85;101585.63;5018996;28;46500;-53
2021/10/16 06:10:35;;;;;;;;;8.25;8.25;;;;;18.83;43.74;101577.94;5019066;28;45330;-54
2021/10/16 06:13:00;;;;;;;;;9.25;6.50;;;;;18.78;44.06;101585.97;5019150;28;45335;-55
2021/10/16 06:15:25;;;;;;;;;10.50;8.75;;;;;18.70;44.28;101585.38;5001752;28;45175;-54
2021/10/16 06:17:51;;;;;;;;;8.25;8.25;;;;;18.64;44.38;101577.72;5018815;28;45338;-55
2021/10/16 06:20:17;;;;;;;;;11.00;8.25;;;;;18.60;44.55;101578.72;5019044;28;45387;-54
2021/10/16 06:22:42;;;;;;;;;7.00;7.00;;;;;18.52;44.41;101581.66;5018975;28;45353;-54
2021/10/16 06:25:08;;;;;;;;;9.25;8.00;;;;;18.49;44.49;101587.84;5019292;28;45336;-55
2021/10/16 06:27:33;;;;;;;;;9.00;8.50;;;;;18.44;44.67;101584.53;5018671;28;45346;-55
2021/10/16 06:29:59;;;;;;;;;7.00;7.00;;;;;18.40;44.84;101593.41;5018745;28;45309;-55
2021/10/16 06:32:24;;;;;;;;;9.50;8.50;;;;;18.37;44.90;101590.88;5019221;28;45529;-55
2021/10/16 06:34:50;;;;;;;;;6.50;6.00;;;;;18.44;44.97;101595.03;5018912;28;45629;-55
2021/10/16 06:37:15;;;;;;;;;4.75;4.75;;;;;18.65;45.40;101596.03;5018640;28;46343;-53
2021/10/16 06:39:41;;;;;;;;;6.00;4.00;;;;;18.84;44.83;101592.78;5018727;28;45436;-54
2021/10/16 06:42:06;;;;;;;;;6.00;6.00;;;;;19.03;44.78;101597.38;5018800;28;45414;-54
2021/10/16 06:44:32;;;;;;;;;7.25;6.75;;;;;19.20;44.81;101589.72;5018917;28;45472;-54
2021/10/16 06:46:57;;;;;;;;;6.00;6.00;;;;;19.33;44.14;101592.75;5018736;28;46301;-55
2021/10/16 06:49:23;;;;;;;;;4.50;3.00;;;;;19.47;44.29;101587.81;5018520;28;45402;-54
2021/10/16 06:51:48;;;;;;;;;6.00;4.75;;;;;19.59;44.38;101597.00;5018573;28;45372;-52
2021/10/16 06:54:14;;;;;;;;;6.00;6.00;;;;;19.68;43.75;101595.75;5018713;28;45344;-54
2021/10/16 06:56:39;;;;;;;;;5.25;5.25;;;;;19.78;43.93;101594.50;5018418;28;45608;-55
2021/10/16 06:59:05;;;;;;;;;4.25;4.25;;;;;19.85;43.97;101591.63;5018315;28;45363;-53
2021/10/16 07:01:30;;;;;;;;;7.25;5.75;;;;;19.93;43.91;101595.69;5018615;28;45388;-53
2021/10/16 07:03:55;;;;;;;;;4.50;4.00;;;;;20.00;43.46;101598.94;5018835;28;45522;-54
2021/10/16 07:06:21;;;;;;;;;5.50;4.00;;;;;20.06;43.35;101597.81;5017858;28;45381;-55
2021/10/16 07:08:46;;;;;;;;;6.50;5.00;;;;;20.12;43.26;101591.44;5000544;28;45271;-54
2021/10/16 07:11:11;;;;;;;;;9.00;6.25;;;;;20.16;43.55;101595.63;5018381;28;45214;-55
2021/10/16 07:13:37;;;;;;;;;5.25;4.50;;;;;20.20;43.02;101607.75;5018430;28;45222;-54
2021/10/16 07:16:03;;;;;;;;;5.00;5.00;;;;;20.24;43.33;101604.06;5018118;28;45609;-54
2021/10/16 07:18:29;;;;;;;;;8.00;7.00;;;;;20.28;43.12;101605.66;5018216;28;45788;-55
2021/10/16 07:20:55;;;;;;;;;4.75;4.00;;;;;20.30;43.33;101609.09;5018276;28;45355;-55
2021/10/16 07:23:26;;;;;;;;;6.25;5.00;;;;;20.34;42.75;101612.44;5018275;28;45503;-56
2021/10/16 07:25:55;;;;;;;;;5.00;5.00;;;;;20.37;43.01;101614.97;5000018;28;46433;-57
2021/10/16 07:28:21;;;;;;;;;6.50;5.50;;;;;20.39;42.49;101615.75;5017952;28;45816;-56
2021/10/16 07:30:47;;;;;;;;;6.00;3.25;;;;;20.41;42.73;101626.22;5017925;28;45614;-56
2021/10/16 07:33:13;;;;;;;;;6.75;4.00;;;;;20.44;42.35;101620.81;4999344;28;45460;-56
2021/10/16 07:35:40;;;;;;;;;9.00;7.00;;;;;20.45;42.56;101622.53;5017748;28;46617;-56
2021/10/16 07:38:05;;;;;;;;;7.00;4.75;;;;;20.47;42.36;101625.94;5017921;28;45223;-56
2021/10/16 07:40:31;;;;;;;;;7.25;5.00;;;;;20.49;42.05;101626.72;5018307;28;45349;-57
2021/10/16 07:42:56;;;;;;;;;7.00;5.00;;;;;20.50;42.33;101624.06;5017917;28;45499;-56
2021/10/16 07:45:22;;;;;;;;;4.50;4.50;;;;;20.50;42.04;101629.31;5017515;28;46062;-56
2021/10/16 07:47:48;;;;;;;;;7.00;4.25;;;;;20.53;42.36;101630.97;4999961;28;45719;-56
2021/10/16 07:50:13;;;;;;;;;5.00;5.00;;;;;20.52;41.86;101626.59;5017772;28;45286;-56
2021/10/16 07:52:39;;;;;;;;;7.25;5.50;;;;;20.55;42.03;101629.13;5018010;28;45226;-56
2021/10/16 07:55:04;;;;;;;;;5.00;5.00;;;;;20.54;42.07;101628.25;5017453;28;45612;-56
2021/10/16 07:57:30;;;;;;;;;5.25;5.25;;;;;20.57;42.07;101629.88;5017951;28;45541;-56
2021/10/16 07:59:55;;;;;;;;;8.25;6.00;;;;;20.55;41.82;101629.13;5017575;28;45335;-53
2021/10/16 08:02:20;;;;;;;;;6.50;4.00;;;;;20.57;42.00;101626.41;5017703;28;45301;-56
2021/10/16 08:04:46;;;;;;;;;5.25;5.25;;;;;20.60;42.00;101634.19;5016994;28;46339;-54
2021/10/16 08:07:11;;;;;;;;;7.00;6.00;;;;;20.59;41.62;101635.09;5017377;28;45453;-56
2021/10/16 08:09:36;;;;;;;;;5.50;5.50;;;;;20.59;41.98;101641.22;5017402;28;45334;-55
2021/10/16 08:12:02;;;;;;;;;5.25;5.00;;;;;20.61;41.61;101636.75;5017918;28;45412;-55
2021/10/16 08:14:27;;;;;;;;;5.00;4.25;;;;;20.60;41.93;101631.56;5016890;28;45404;-55
2021/10/16 08:16:53;;;;;;;;;8.25;7.00;;;;;20.63;41.57;101632.28;5016053;28;45780;-56
2021/10/16 08:19:19;;;;;;;;;6.00;4.00;;;;;20.61;41.47;101626.22;5017270;28;45421;-55
2021/10/16 08:21:45;;;;;;;;;7.25;6.00;;;;;20.63;41.22;101637.53;5017433;28;45546;-55
2021/10/16 08:24:10;;;;;;;;;6.25;5.00;;;;;20.65;41.56;101640.09;5017022;28;46937;-55
2021/10/16 08:26:35;;;;;;;;;6.00;5.25;;;;;20.63;41.78;101637.53;5017083;28;45337;-55
2021/10/16 08:29:01;;;;;;;;;4.75;4.00;;;;;20.65;41.08;101629.56;5017344;28;45381;-55
2021/10/16 08:31:26;;;;;;;;;6.50;6.00;;;;;20.65;41.29;101622.53;5017216;28;45475;-55
2021/10/16 08:33:53;;;;;;;;;6.00;5.00;;;;;20.67;41.24;101630.34;5016764;28;46484;-55
2021/10/16 08:36:18;;;;;;;;;6.25;5.00;;;;;20.66;41.02;101633.91;5016867;28;45167;-54
2021/10/16 08:38:44;;;;;;;;;4.00;4.00;;;;;20.65;41.18;101633.06;5017041;28;45317;-55
2021/10/16 08:41:10;;;;;;;;;0.50;0.00;;;;;20.68;40.88;101638.19;5017143;28;45347;-55
2021/10/16 08:43:36;;;;;;;;;7.00;6.00;;;;;20.67;40.77;101636.47;5016552;28;47188;-55
2021/10/16 08:46:02;;;;;;;;;6.00;5.00;;;;;20.68;41.04;101638.19;5017029;28;45802;-55
2021/10/16 08:48:29;;;;;;;;;4.75;4.75;;;;;20.69;40.60;101637.25;5016889;28;45310;-56
2021/10/16 08:50:56;;;;;;;;;5.75;3.75;;;;;20.69;41.04;101639.91;5017054;28;45234;-56
2021/10/16 08:53:22;;;;;;;;;5.75;5.75;;;;;20.68;41.00;101650.50;5016553;28;45568;-55
2021/10/16 08:55:51;;;;;;;;;4.50;4.50;;;;;20.69;40.68;101650.44;5016580;28;45405;-54
2021/10/16 08:58:17;;;;;;;;;3.25;3.25;;;;;20.69;40.59;101650.44;5016812;28;45463;-55
2021/10/16 09:00:54;;;;;;;;;5.00;4.00;;;;;20.70;40.65;101649.50;5016913;28;45385;-55
2021/10/16 09:03:23;;;;;;;;;7.75;5.50;;;;;20.72;40.42;101656.50;5016474;28;46119;-55
2021/10/16 09:06:01;;;;;;;;;4.00;4.00;;;;;20.72;40.49;101657.38;5016514;28;45897;-55
2021/10/16 09:08:31;;;;;;;;;7.50;5.25;;;;;20.71;40.78;101655.66;5016677;28;45426;-55
2021/10/16 09:11:25;;;;;;;;;6.50;5.25;;;;;20.73;40.67;101651.16;4998756;28;45615;-54
2021/10/16 09:13:51;;;;;;;;;4.00;4.00;;;;;20.74;40.78;101660.81;5016336;28;46679;-54
2021/10/16 09:16:25;;;;;;;;;6.25;4.00;;;;;20.76;40.25;101658.13;5016360;28;45892;-54
2021/10/16 09:18:54;;;;;;;;;5.75;4.50;;;;;20.75;40.64;101656.41;5016479;28;45309;-55
2021/10/16 09:21:25;;;;;;;;;5.25;5.25;;;;;20.76;40.24;101658.97;5016603;28;45590;-55
2021/10/16 09:24:07;;;;;;;;;7.75;6.75;;;;;20.78;40.61;101648.38;5016053;28;46709;-54
2021/10/16 09:26:35;;;;;;;;;6.50;6.50;;;;;20.78;40.70;101654.50;4998039;28;45795;-54
2021/10/16 09:29:02;;;;;;;;;6.00;5.50;;;;;20.77;40.15;101655.41;5018808;28;45298;-55
2021/10/16 09:31:49;;;;;;;;;7.00;5.50;;;;;20.78;40.52;101654.50;5002059;28;45643;-55
2021/10/16 09:34:33;;;;;;;;;6.25;6.25;;;;;20.80;40.34;101654.41;5019547;28;45684;-54
2021/10/16 09:37:11;;;;;;;;;6.25;6.00;;;;;20.80;40.34;101664.94;5019857;28;45436;-54
2021/10/16 09:39:40;;;;;;;;;5.50;5.50;;;;;20.80;40.31;101659.69;5020152;28;45407;-54
2021/10/16 09:42:08;;;;;;;;;5.00;4.00;;;;;20.81;40.43;101659.63;5020246;28;45606;-54
2021/10/16 09:44:36;;;;;;;;;5.00;4.50;;;;;20.81;40.12;101657.00;5019861;28;46399;-54
2021/10/16 09:47:03;;;;;;;;;7.25;3.50;;;;;20.82;39.86;101660.47;5019513;28;45811;-55
2021/10/16 09:49:32;;;;;;;;;5.25;5.00;;;;;20.83;39.97;101659.56;5019544;28;45528;-55
2021/10/16 09:51:57;;;;;;;;;4.50;4.00;;;;;20.83;40.32;101659.56;5019766;28;45655;-55
2021/10/16 09:54:23;;;;;;;;;6.50;5.00;;;;;20.82;40.24;101658.72;5019281;28;46395;-55
2021/10/16 09:56:48;;;;;;;;;5.25;4.25;;;;;20.84;40.05;101661.28;5019286;28;45242;-55
2021/10/16 09:59:17;;;;;;;;;7.75;6.00;;;;;20.83;40.08;101652.53;5019276;28;45625;-54
2021/10/16 10:01:44;;;;;;;;;4.75;4.75;;;;;20.84;39.60;101650.72;5019485;28;45685;-54
2021/10/16 10:04:11;;;;;;;;;4.75;4.75;;;;;20.83;39.87;101649.00;5001195;28;47218;-55
2021/10/16 10:06:38;;;;;;;;;3.25;3.25;;;;;20.85;40.19;101658.56;5001767;28;45279;-55
2021/10/16 10:09:05;;;;;;;;;5.00;5.00;;;;;20.85;39.60;101658.56;5019296;28;45237;-54
2021/10/16 10:11:31;;;;;;;;;4.00;4.00;;;;;20.84;39.91;101648.94;5019479;28;45411;-55
2021/10/16 10:13:56;;;;;;;;;7.00;7.00;;;;;20.85;39.43;101649.81;5018916;28;46415;-52
2021/10/16 10:16:22;;;;;;;;;4.75;3.75;;;;;20.85;39.78;101647.19;5019093;28;45331;-55
2021/10/16 10:19:00;;;;;;;;;4.75;4.50;;;;;20.85;39.81;101640.13;5019238;28;45431;-55
2021/10/16 10:21:37;;;;;;;;;5.00;4.00;;;;;20.85;39.44;101645.38;5019369;28;45447;-55
2021/10/16 10:24:05;;;;;;;;;4.50;3.75;;;;;20.86;39.44;101646.25;5018944;28;45599;-55
2021/10/16 10:26:31;;;;;;;;;6.00;5.00;;;;;20.87;39.63;101645.34;5019001;28;45317;-54
2021/10/16 10:29:20;;;;;;;;;5.00;4.75;;;;;20.87;39.34;101645.34;5019057;28;45376;-54
2021/10/16 10:31:45;;;;;;;;;6.75;5.00;;;;;20.89;39.66;101647.88;5019167;28;45371;-55
2021/10/16 10:34:17;;;;;;;;;4.33;3.67;;;;;20.88;39.50;101639.16;5018560;28;45427;-55
2021/10/16 10:36:44;;;;;;;;;5.25;4.25;;;;;20.88;39.78;101641.78;5018721;28;45424;-53
2021/10/16 10:39:35;;;;;;;;;4.00;3.00;;;;;20.89;39.56;101648.72;5018503;28;45354;-53
2021/10/16 10:42:13;;;;;;;;;6.25;5.00;;;;;20.88;39.61;101641.78;5018766;28;45460;-53
2021/10/16 10:44:40;;;;;;;;;4.00;4.00;;;;;20.89;39.19;101639.97;5018616;28;46252;-56
2021/10/16 10:47:25;;;;;;;;;4.00;4.00;;;;;20.91;39.58;101638.97;5018879;28;45698;-53
2021/10/16 10:49:52;;;;;;;;;4.00;3.00;;;;;20.90;39.60;101639.91;5018609;28;45490;-54
2021/10/16 10:52:19;;;;;;;;;3.75;3.00;;;;;20.91;39.26;101646.06;5018920;28;45239;-54
2021/10/16 10:55:08;;;;;;;;;4.00;4.00;;;;;20.91;39.53;101646.88;5018341;28;45507;-58
2021/10/16 10:57:48;;;;;;;;;3.50;3.00;;;;;20.92;39.17;101645.13;5018546;28;45313;-53
2021/10/16 11:00:39;;;;;;;;;6.50;5.00;;;;;20.91;39.16;101636.34;5018521;28;45235;-55
2021/10/16 11:03:37;;;;;;;;;6.00;5.00;;;;;20.92;39.44;101638.06;5018668;28;45457;-54
2021/10/16 11:06:08;;;;;;;;;4.00;4.00;;;;;20.93;38.96;101631.88;5002864;28;46738;-55
2021/10/16 11:08:35;;;;;;;;;5.50;4.00;;;;;20.92;39.49;101631.94;5018211;28;45824;-55
2021/10/16 11:11:01;;;;;;;;;4.00;4.00;;;;;20.93;39.27;101631.88;5018418;28;45463;-52
2021/10/16 11:13:26;;;;;;;;;5.00;5.00;;;;;20.93;38.97;101633.66;5018530;28;45361;-55
2021/10/16 11:15:56;;;;;;;;;4.25;4.25;;;;;20.94;39.21;101624.84;5018122;28;46150;-55
2021/10/16 11:18:22;;;;;;;;;3.75;3.50;;;;;20.93;39.25;101629.25;5018192;28;45457;-55
2021/10/16 11:20:47;;;;;;;;;3.00;3.00;;;;;20.95;39.15;101626.53;5018357;28;45824;-55
2021/10/16 11:23:23;;;;;;;;;3.00;3.00;;;;;20.94;39.34;101630.94;5018353;28;45562;-54